sensor_id;sensor_type;location;lat;lon;timestamp;P1;durP1;ratioP1;P2;durP2;ratioP2
11245;SDS011;59870;50.106;8.580;2023-07-02T00:00:05;4.47;;;3.23;;
11245;SDS011;59870;50.106;8.580;2023-07-02T00:02:35;4.03;;;3.70;;
11245;SDS011;59870;50.106;8.580;2023-07-02T00:05:04;3.67;;;3.40;;
11245;SDS011;59870;50.106;8.580;2023-07-02T00:07:32;4.70;;;3.80;;
11245;SDS011;59870;50.106;8.580;2023-07-02T00:10:03;6.87;;;3.40;;
11245;SDS011;59870;50.106;8.580;2023-07-02T00:12:31;3.67;;;3.47;;
11245;SDS011;59870;50.106;8.580;2023-07-02T00:15:00;3.53;;;3.20;;
11245;SDS011;59870;50.106;8.580;2023-07-02T00:17:30;3.13;;;3.03;;
11245;SDS011;59870;50.106;8.580;2023-07-02T00:19:58;4.20;;;3.47;;
11245;SDS011;59870;50.106;8.580;2023-07-02T00:22:29;3.00;;;2.87;;
11245;SDS011;59870;50.106;8.580;2023-07-02T00:24:58;5.30;;;3.80;;
11245;SDS011;59870;50.106;8.580;2023-07-02T00:27:25;4.27;;;3.13;;
11245;SDS011;59870;50.106;8.580;2023-07-02T00:29:53;3.70;;;3.33;;
11245;SDS011;59870;50.106;8.580;2023-07-02T00:32:20;3.30;;;3.00;;
11245;SDS011;59870;50.106;8.580;2023-07-02T00:34:47;3.60;;;3.30;;
11245;SDS011;59870;50.106;8.580;2023-07-02T00:37:15;3.53;;;3.23;;
11245;SDS011;59870;50.106;8.580;2023-07-02T00:39:43;3.30;;;3.10;;
11245;SDS011;59870;50.106;8.580;2023-07-02T00:42:11;3.80;;;3.20;;
11245;SDS011;59870;50.106;8.580;2023-07-02T00:44:40;3.90;;;3.53;;
11245;SDS011;59870;50.106;8.580;2023-07-02T00:47:08;3.97;;;3.57;;
11245;SDS011;59870;50.106;8.580;2023-07-02T00:49:37;3.50;;;3.30;;
11245;SDS011;59870;50.106;8.580;2023-07-02T00:52:08;3.53;;;3.33;;
11245;SDS011;59870;50.106;8.580;2023-07-02T00:54:36;8.87;;;3.40;;
11245;SDS011;59870;50.106;8.580;2023-07-02T00:57:03;4.03;;;3.50;;
11245;SDS011;59870;50.106;8.580;2023-07-02T00:59:33;3.80;;;3.50;;
11245;SDS011;59870;50.106;8.580;2023-07-02T01:02:06;3.87;;;3.10;;
11245;SDS011;59870;50.106;8.580;2023-07-02T01:04:34;3.43;;;3.13;;
11245;SDS011;59870;50.106;8.580;2023-07-02T01:07:02;3.17;;;2.87;;
11245;SDS011;59870;50.106;8.580;2023-07-02T01:09:35;4.23;;;3.23;;
11245;SDS011;59870;50.106;8.580;2023-07-02T01:12:04;4.60;;;3.73;;
11245;SDS011;59870;50.106;8.580;2023-07-02T01:14:46;12.33;;;3.40;;
11245;SDS011;59870;50.106;8.580;2023-07-02T01:17:16;3.27;;;3.07;;
11245;SDS011;59870;50.106;8.580;2023-07-02T01:19:48;4.17;;;3.10;;
11245;SDS011;59870;50.106;8.580;2023-07-02T01:22:21;3.13;;;2.63;;
11245;SDS011;59870;50.106;8.580;2023-07-02T01:24:51;3.20;;;3.00;;
11245;SDS011;59870;50.106;8.580;2023-07-02T01:27:19;5.60;;;3.10;;
11245;SDS011;59870;50.106;8.580;2023-07-02T01:29:50;2.90;;;2.70;;
11245;SDS011;59870;50.106;8.580;2023-07-02T01:32:19;3.60;;;3.27;;
11245;SDS011;59870;50.106;8.580;2023-07-02T01:34:47;3.00;;;2.80;;
11245;SDS011;59870;50.106;8.580;2023-07-02T01:37:17;4.60;;;3.43;;
11245;SDS011;59870;50.106;8.580;2023-07-02T01:39:45;4.60;;;3.40;;
11245;SDS011;59870;50.106;8.580;2023-07-02T01:42:13;3.43;;;3.13;;
11245;SDS011;59870;50.106;8.580;2023-07-02T01:44:46;3.40;;;3.10;;
11245;SDS011;59870;50.106;8.580;2023-07-02T01:47:16;4.20;;;3.50;;
11245;SDS011;59870;50.106;8.580;2023-07-02T01:49:45;6.33;;;3.47;;
11245;SDS011;59870;50.106;8.580;2023-07-02T01:52:12;3.93;;;3.27;;
11245;SDS011;59870;50.106;8.580;2023-07-02T01:54:40;6.83;;;3.10;;
11245;SDS011;59870;50.106;8.580;2023-07-02T01:57:08;3.63;;;3.33;;
11245;SDS011;59870;50.106;8.580;2023-07-02T01:59:36;3.60;;;2.83;;
11245;SDS011;59870;50.106;8.580;2023-07-02T02:02:04;4.20;;;3.10;;
11245;SDS011;59870;50.106;8.580;2023-07-02T02:04:35;4.23;;;3.67;;
11245;SDS011;59870;50.106;8.580;2023-07-02T02:07:03;4.67;;;3.07;;
11245;SDS011;59870;50.106;8.580;2023-07-02T02:09:31;3.53;;;3.13;;
11245;SDS011;59870;50.106;8.580;2023-07-02T02:11:59;3.90;;;3.60;;
11245;SDS011;59870;50.106;8.580;2023-07-02T02:14:27;4.33;;;3.53;;
11245;SDS011;59870;50.106;8.580;2023-07-02T02:16:55;3.13;;;2.93;;
11245;SDS011;59870;50.106;8.580;2023-07-02T02:19:23;3.57;;;3.30;;
11245;SDS011;59870;50.106;8.580;2023-07-02T02:21:50;5.97;;;3.00;;
11245;SDS011;59870;50.106;8.580;2023-07-02T02:24:18;3.47;;;3.13;;
11245;SDS011;59870;50.106;8.580;2023-07-02T02:26:47;3.30;;;3.00;;
11245;SDS011;59870;50.106;8.580;2023-07-02T02:29:14;3.53;;;3.23;;
11245;SDS011;59870;50.106;8.580;2023-07-02T02:31:42;3.17;;;2.87;;
11245;SDS011;59870;50.106;8.580;2023-07-02T02:34:11;3.70;;;2.90;;
11245;SDS011;59870;50.106;8.580;2023-07-02T02:36:39;4.30;;;3.07;;
11245;SDS011;59870;50.106;8.580;2023-07-02T02:39:07;4.80;;;3.10;;
11245;SDS011;59870;50.106;8.580;2023-07-02T02:41:35;3.20;;;2.90;;
11245;SDS011;59870;50.106;8.580;2023-07-02T02:44:02;3.10;;;2.80;;
11245;SDS011;59870;50.106;8.580;2023-07-02T02:46:30;4.20;;;2.60;;
11245;SDS011;59870;50.106;8.580;2023-07-02T02:48:58;3.23;;;2.97;;
11245;SDS011;59870;50.106;8.580;2023-07-02T02:51:26;3.70;;;3.50;;
11245;SDS011;59870;50.106;8.580;2023-07-02T02:53:54;2.90;;;2.70;;
11245;SDS011;59870;50.106;8.580;2023-07-02T02:56:22;3.87;;;3.50;;
11245;SDS011;59870;50.106;8.580;2023-07-02T02:58:49;3.70;;;3.40;;
11245;SDS011;59870;50.106;8.580;2023-07-02T03:01:18;3.80;;;3.50;;
11245;SDS011;59870;50.106;8.580;2023-07-02T03:03:46;3.83;;;3.63;;
11245;SDS011;59870;50.106;8.580;2023-07-02T03:06:14;6.57;;;4.03;;
11245;SDS011;59870;50.106;8.580;2023-07-02T03:08:42;5.50;;;4.10;;
11245;SDS011;59870;50.106;8.580;2023-07-02T03:11:10;4.17;;;3.77;;
11245;SDS011;59870;50.106;8.580;2023-07-02T03:13:38;7.53;;;4.30;;
11245;SDS011;59870;50.106;8.580;2023-07-02T03:16:05;4.30;;;4.00;;
11245;SDS011;59870;50.106;8.580;2023-07-02T03:18:33;4.53;;;4.23;;
11245;SDS011;59870;50.106;8.580;2023-07-02T03:21:02;5.23;;;4.37;;
11245;SDS011;59870;50.106;8.580;2023-07-02T03:23:29;5.30;;;4.60;;
11245;SDS011;59870;50.106;8.580;2023-07-02T03:25:57;5.83;;;5.23;;
11245;SDS011;59870;50.106;8.580;2023-07-02T03:28:25;7.03;;;5.20;;
11245;SDS011;59870;50.106;8.580;2023-07-02T03:30:52;6.83;;;4.93;;
11245;SDS011;59870;50.106;8.580;2023-07-02T03:33:20;6.37;;;4.83;;
11245;SDS011;59870;50.106;8.580;2023-07-02T03:35:49;5.83;;;4.67;;
11245;SDS011;59870;50.106;8.580;2023-07-02T03:38:18;7.47;;;4.80;;
11245;SDS011;59870;50.106;8.580;2023-07-02T03:40:46;5.60;;;5.10;;
11245;SDS011;59870;50.106;8.580;2023-07-02T03:43:15;7.67;;;4.93;;
11245;SDS011;59870;50.106;8.580;2023-07-02T03:45:42;5.40;;;4.90;;
11245;SDS011;59870;50.106;8.580;2023-07-02T03:48:10;6.47;;;5.27;;
11245;SDS011;59870;50.106;8.580;2023-07-02T03:50:37;7.90;;;5.57;;
11245;SDS011;59870;50.106;8.580;2023-07-02T03:53:05;5.60;;;5.10;;
11245;SDS011;59870;50.106;8.580;2023-07-02T03:55:32;6.67;;;4.93;;
11245;SDS011;59870;50.106;8.580;2023-07-02T03:58:00;5.63;;;5.07;;
11245;SDS011;59870;50.106;8.580;2023-07-02T04:00:27;5.73;;;5.30;;
11245;SDS011;59870;50.106;8.580;2023-07-02T04:02:55;5.60;;;5.10;;
11245;SDS011;59870;50.106;8.580;2023-07-02T04:05:22;6.33;;;5.77;;
11245;SDS011;59870;50.106;8.580;2023-07-02T04:07:49;6.53;;;5.60;;
11245;SDS011;59870;50.106;8.580;2023-07-02T04:10:17;5.67;;;5.17;;
11245;SDS011;59870;50.106;8.580;2023-07-02T04:12:45;5.90;;;5.50;;
11245;SDS011;59870;50.106;8.580;2023-07-02T04:15:12;5.53;;;5.07;;
11245;SDS011;59870;50.106;8.580;2023-07-02T04:17:40;6.37;;;5.77;;
11245;SDS011;59870;50.106;8.580;2023-07-02T04:20:08;8.50;;;5.50;;
11245;SDS011;59870;50.106;8.580;2023-07-02T04:22:37;5.40;;;5.00;;
11245;SDS011;59870;50.106;8.580;2023-07-02T04:25:04;6.27;;;5.67;;
11245;SDS011;59870;50.106;8.580;2023-07-02T04:27:52;11.73;;;5.23;;
11245;SDS011;59870;50.106;8.580;2023-07-02T04:30:23;6.13;;;5.60;;
11245;SDS011;59870;50.106;8.580;2023-07-02T04:32:52;5.87;;;5.43;;
11245;SDS011;59870;50.106;8.580;2023-07-02T04:35:19;6.63;;;5.60;;
11245;SDS011;59870;50.106;8.580;2023-07-02T04:37:48;5.47;;;4.97;;
11245;SDS011;59870;50.106;8.580;2023-07-02T04:40:15;6.13;;;5.47;;
11245;SDS011;59870;50.106;8.580;2023-07-02T04:42:43;6.00;;;5.50;;
11245;SDS011;59870;50.106;8.580;2023-07-02T04:45:14;8.50;;;6.17;;
11245;SDS011;59870;50.106;8.580;2023-07-02T04:47:44;7.57;;;5.83;;
11245;SDS011;59870;50.106;8.580;2023-07-02T04:50:12;6.90;;;6.17;;
11245;SDS011;59870;50.106;8.580;2023-07-02T04:52:40;6.03;;;5.30;;
11245;SDS011;59870;50.106;8.580;2023-07-02T04:55:08;6.67;;;6.13;;
11245;SDS011;59870;50.106;8.580;2023-07-02T04:57:36;6.97;;;6.27;;
11245;SDS011;59870;50.106;8.580;2023-07-02T05:00:03;6.80;;;6.20;;
11245;SDS011;59870;50.106;8.580;2023-07-02T05:02:35;7.20;;;6.50;;
11245;SDS011;59870;50.106;8.580;2023-07-02T05:05:03;9.47;;;7.13;;
11245;SDS011;59870;50.106;8.580;2023-07-02T05:07:30;11.27;;;7.60;;
11245;SDS011;59870;50.106;8.580;2023-07-02T05:09:57;9.30;;;6.70;;
11245;SDS011;59870;50.106;8.580;2023-07-02T05:12:25;13.13;;;7.83;;
11245;SDS011;59870;50.106;8.580;2023-07-02T05:14:52;8.70;;;7.90;;
11245;SDS011;59870;50.106;8.580;2023-07-02T05:17:20;8.30;;;7.60;;
11245;SDS011;59870;50.106;8.580;2023-07-02T05:19:47;8.67;;;7.77;;
11245;SDS011;59870;50.106;8.580;2023-07-02T05:22:14;9.43;;;7.80;;
11245;SDS011;59870;50.106;8.580;2023-07-02T05:24:45;9.60;;;8.60;;
11245;SDS011;59870;50.106;8.580;2023-07-02T05:27:13;7.70;;;7.10;;
11245;SDS011;59870;50.106;8.580;2023-07-02T05:29:40;8.63;;;7.60;;
11245;SDS011;59870;50.106;8.580;2023-07-02T05:32:08;8.40;;;7.60;;
11245;SDS011;59870;50.106;8.580;2023-07-02T05:34:35;11.70;;;8.13;;
11245;SDS011;59870;50.106;8.580;2023-07-02T05:37:02;9.83;;;7.80;;
11245;SDS011;59870;50.106;8.580;2023-07-02T05:39:30;7.93;;;7.23;;
11245;SDS011;59870;50.106;8.580;2023-07-02T05:41:58;7.73;;;7.13;;
11245;SDS011;59870;50.106;8.580;2023-07-02T05:44:26;7.93;;;7.00;;
11245;SDS011;59870;50.106;8.580;2023-07-02T05:46:53;7.83;;;7.00;;
11245;SDS011;59870;50.106;8.580;2023-07-02T05:49:20;7.30;;;6.70;;
11245;SDS011;59870;50.106;8.580;2023-07-02T05:51:48;7.83;;;7.03;;
11245;SDS011;59870;50.106;8.580;2023-07-02T05:54:15;7.57;;;6.83;;
11245;SDS011;59870;50.106;8.580;2023-07-02T05:56:44;8.03;;;6.90;;
11245;SDS011;59870;50.106;8.580;2023-07-02T05:59:11;7.80;;;7.07;;
11245;SDS011;59870;50.106;8.580;2023-07-02T06:01:41;7.70;;;6.87;;
11245;SDS011;59870;50.106;8.580;2023-07-02T06:04:12;7.90;;;6.90;;
11245;SDS011;59870;50.106;8.580;2023-07-02T06:06:39;8.37;;;7.57;;
11245;SDS011;59870;50.106;8.580;2023-07-02T06:09:07;8.20;;;6.97;;
11245;SDS011;59870;50.106;8.580;2023-07-02T06:11:35;9.77;;;7.50;;
11245;SDS011;59870;50.106;8.580;2023-07-02T06:14:02;7.90;;;7.10;;
11245;SDS011;59870;50.106;8.580;2023-07-02T06:16:30;8.13;;;7.27;;
11245;SDS011;59870;50.106;8.580;2023-07-02T06:18:57;7.83;;;7.13;;
11245;SDS011;59870;50.106;8.580;2023-07-02T06:21:25;9.37;;;7.57;;
11245;SDS011;59870;50.106;8.580;2023-07-02T06:23:57;9.73;;;7.70;;
11245;SDS011;59870;50.106;8.580;2023-07-02T06:26:28;8.40;;;7.67;;
11245;SDS011;59870;50.106;8.580;2023-07-02T06:28:57;9.47;;;8.77;;
11245;SDS011;59870;50.106;8.580;2023-07-02T06:31:25;9.07;;;8.10;;
11245;SDS011;59870;50.106;8.580;2023-07-02T06:33:53;9.13;;;8.33;;
11245;SDS011;59870;50.106;8.580;2023-07-02T06:36:21;10.37;;;8.43;;
11245;SDS011;59870;50.106;8.580;2023-07-02T06:38:48;9.23;;;8.33;;
11245;SDS011;59870;50.106;8.580;2023-07-02T06:41:16;9.10;;;8.37;;
11245;SDS011;59870;50.106;8.580;2023-07-02T06:43:43;10.10;;;9.20;;
11245;SDS011;59870;50.106;8.580;2023-07-02T06:46:11;9.17;;;8.43;;
11245;SDS011;59870;50.106;8.580;2023-07-02T06:48:39;8.63;;;7.90;;
11245;SDS011;59870;50.106;8.580;2023-07-02T06:51:07;9.70;;;8.70;;
11245;SDS011;59870;50.106;8.580;2023-07-02T06:53:35;9.90;;;8.90;;
11245;SDS011;59870;50.106;8.580;2023-07-02T06:56:04;10.07;;;9.17;;
11245;SDS011;59870;50.106;8.580;2023-07-02T06:58:31;11.60;;;9.90;;
11245;SDS011;59870;50.106;8.580;2023-07-02T07:00:59;10.30;;;9.40;;
11245;SDS011;59870;50.106;8.580;2023-07-02T07:03:27;12.80;;;11.60;;
11245;SDS011;59870;50.106;8.580;2023-07-02T07:05:55;11.50;;;10.07;;
11245;SDS011;59870;50.106;8.580;2023-07-02T07:08:22;10.77;;;9.80;;
11245;SDS011;59870;50.106;8.580;2023-07-02T07:10:49;11.13;;;9.97;;
11245;SDS011;59870;50.106;8.580;2023-07-02T07:13:17;13.23;;;10.70;;
11245;SDS011;59870;50.106;8.580;2023-07-02T07:15:45;13.80;;;10.40;;
11245;SDS011;59870;50.106;8.580;2023-07-02T07:18:12;16.33;;;11.80;;
11245;SDS011;59870;50.106;8.580;2023-07-02T07:20:41;14.03;;;11.43;;
11245;SDS011;59870;50.106;8.580;2023-07-02T07:23:09;12.47;;;11.23;;
11245;SDS011;59870;50.106;8.580;2023-07-02T07:25:36;13.50;;;12.07;;
11245;SDS011;59870;50.106;8.580;2023-07-02T07:28:04;13.63;;;12.30;;
11245;SDS011;59870;50.106;8.580;2023-07-02T07:30:31;12.83;;;11.23;;
11245;SDS011;59870;50.106;8.580;2023-07-02T07:32:59;15.53;;;12.17;;
11245;SDS011;59870;50.106;8.580;2023-07-02T07:35:27;16.03;;;11.80;;
11245;SDS011;59870;50.106;8.580;2023-07-02T07:37:54;12.40;;;11.10;;
11245;SDS011;59870;50.106;8.580;2023-07-02T07:40:22;12.83;;;10.83;;
11245;SDS011;59870;50.106;8.580;2023-07-02T07:42:49;16.17;;;11.97;;
11245;SDS011;59870;50.106;8.580;2023-07-02T07:45:17;12.50;;;11.20;;
11245;SDS011;59870;50.106;8.580;2023-07-02T07:47:45;12.80;;;11.23;;
11245;SDS011;59870;50.106;8.580;2023-07-02T07:50:12;14.30;;;11.60;;
11245;SDS011;59870;50.106;8.580;2023-07-02T07:52:40;12.90;;;11.60;;
11245;SDS011;59870;50.106;8.580;2023-07-02T07:55:10;16.23;;;11.90;;
11245;SDS011;59870;50.106;8.580;2023-07-02T07:57:37;12.67;;;11.53;;
11245;SDS011;59870;50.106;8.580;2023-07-02T08:00:05;14.17;;;11.97;;
11245;SDS011;59870;50.106;8.580;2023-07-02T08:02:45;13.87;;;12.37;;
11245;SDS011;59870;50.106;8.580;2023-07-02T08:05:16;13.00;;;11.70;;
11245;SDS011;59870;50.106;8.580;2023-07-02T08:07:44;12.73;;;11.23;;
11245;SDS011;59870;50.106;8.580;2023-07-02T08:10:11;12.77;;;11.57;;
11245;SDS011;59870;50.106;8.580;2023-07-02T08:12:38;14.80;;;12.07;;
11245;SDS011;59870;50.106;8.580;2023-07-02T08:15:06;12.57;;;11.37;;
11245;SDS011;59870;50.106;8.580;2023-07-02T08:17:34;12.63;;;11.43;;
11245;SDS011;59870;50.106;8.580;2023-07-02T08:20:02;12.93;;;11.48;;
11245;SDS011;59870;50.106;8.580;2023-07-02T08:22:31;13.75;;;12.20;;
11245;SDS011;59870;50.106;8.580;2023-07-02T08:24:58;12.52;;;11.23;;
11245;SDS011;59870;50.106;8.580;2023-07-02T08:27:26;12.30;;;11.10;;
11245;SDS011;59870;50.106;8.580;2023-07-02T08:29:53;17.92;;;12.85;;
11245;SDS011;59870;50.106;8.580;2023-07-02T08:32:20;14.37;;;12.33;;
11245;SDS011;59870;50.106;8.580;2023-07-02T08:34:48;14.13;;;12.57;;
11245;SDS011;59870;50.106;8.580;2023-07-02T08:37:17;13.10;;;11.80;;
11245;SDS011;59870;50.106;8.580;2023-07-02T08:39:45;13.23;;;11.83;;
11245;SDS011;59870;50.106;8.580;2023-07-02T08:42:12;14.48;;;11.77;;
11245;SDS011;59870;50.106;8.580;2023-07-02T08:44:40;14.20;;;11.82;;
11245;SDS011;59870;50.106;8.580;2023-07-02T08:47:09;13.55;;;12.25;;
11245;SDS011;59870;50.106;8.580;2023-07-02T08:49:37;12.23;;;11.15;;
11245;SDS011;59870;50.106;8.580;2023-07-02T08:52:05;13.13;;;11.85;;
11245;SDS011;59870;50.106;8.580;2023-07-02T08:54:33;12.98;;;11.43;;
11245;SDS011;59870;50.106;8.580;2023-07-02T08:57:00;12.82;;;11.63;;
11245;SDS011;59870;50.106;8.580;2023-07-02T08:59:31;13.50;;;12.20;;
11245;SDS011;59870;50.106;8.580;2023-07-02T09:01:59;14.45;;;11.38;;
11245;SDS011;59870;50.106;8.580;2023-07-02T09:04:26;14.05;;;11.88;;
11245;SDS011;59870;50.106;8.580;2023-07-02T09:07:05;13.32;;;11.93;;
11245;SDS011;59870;50.106;8.580;2023-07-02T09:10:08;14.77;;;13.35;;
11245;SDS011;59870;50.106;8.580;2023-07-02T09:12:30;13.35;;;12.15;;
11245;SDS011;59870;50.106;8.580;2023-07-02T09:15:01;16.77;;;12.05;;
11245;SDS011;59870;50.106;8.580;2023-07-02T09:17:31;12.27;;;11.17;;
11245;SDS011;59870;50.106;8.580;2023-07-02T09:20:02;12.10;;;10.95;;
11245;SDS011;59870;50.106;8.580;2023-07-02T09:22:34;12.90;;;11.63;;
11245;SDS011;59870;50.106;8.580;2023-07-02T09:25:02;11.13;;;9.95;;
11245;SDS011;59870;50.106;8.580;2023-07-02T09:30:09;10.70;;;9.77;;
11245;SDS011;59870;50.106;8.580;2023-07-02T09:32:43;12.23;;;11.10;;
11245;SDS011;59870;50.106;8.580;2023-07-02T09:35:13;12.55;;;11.25;;
11245;SDS011;59870;50.106;8.580;2023-07-02T09:37:43;11.60;;;10.70;;
11245;SDS011;59870;50.106;8.580;2023-07-02T09:40:11;11.60;;;10.40;;
11245;SDS011;59870;50.106;8.580;2023-07-02T09:42:40;12.30;;;11.20;;
11245;SDS011;59870;50.106;8.580;2023-07-02T09:45:09;10.73;;;9.00;;
11245;SDS011;59870;50.106;8.580;2023-07-02T09:47:41;13.65;;;10.15;;
11245;SDS011;59870;50.106;8.580;2023-07-02T09:50:12;11.52;;;9.95;;
11245;SDS011;59870;50.106;8.580;2023-07-02T09:52:44;14.00;;;9.37;;
11245;SDS011;59870;50.106;8.580;2023-07-02T09:55:13;11.27;;;9.87;;
11245;SDS011;59870;50.106;8.580;2023-07-02T09:57:43;11.43;;;10.32;;
11245;SDS011;59870;50.106;8.580;2023-07-02T10:00:11;17.52;;;10.55;;
11245;SDS011;59870;50.106;8.580;2023-07-02T10:02:40;11.43;;;10.32;;
11245;SDS011;59870;50.106;8.580;2023-07-02T10:05:08;10.55;;;9.65;;
11245;SDS011;59870;50.106;8.580;2023-07-02T10:07:36;11.70;;;10.60;;
11245;SDS011;59870;50.106;8.580;2023-07-02T10:10:03;11.63;;;10.52;;
11245;SDS011;59870;50.106;8.580;2023-07-02T10:12:31;12.25;;;10.82;;
11245;SDS011;59870;50.106;8.580;2023-07-02T10:14:58;10.30;;;9.30;;
11245;SDS011;59870;50.106;8.580;2023-07-02T10:17:27;10.65;;;9.57;;
11245;SDS011;59870;50.106;8.580;2023-07-02T10:19:57;11.27;;;10.27;;
11245;SDS011;59870;50.106;8.580;2023-07-02T10:22:26;11.13;;;10.07;;
11245;SDS011;59870;50.106;8.580;2023-07-02T10:24:57;11.27;;;10.20;;
11245;SDS011;59870;50.106;8.580;2023-07-02T10:27:33;10.85;;;9.85;;
11245;SDS011;59870;50.106;8.580;2023-07-02T10:30:02;11.10;;;10.05;;
11245;SDS011;59870;50.106;8.580;2023-07-02T10:32:32;10.10;;;9.20;;
11245;SDS011;59870;50.106;8.580;2023-07-02T10:35:01;10.70;;;9.50;;
11245;SDS011;59870;50.106;8.580;2023-07-02T10:37:39;11.93;;;10.75;;
11245;SDS011;59870;50.106;8.580;2023-07-02T10:40:07;16.27;;;10.48;;
11245;SDS011;59870;50.106;8.580;2023-07-02T10:42:49;10.43;;;9.55;;
11245;SDS011;59870;50.106;8.580;2023-07-02T10:45:17;11.93;;;10.23;;
11245;SDS011;59870;50.106;8.580;2023-07-02T10:47:46;12.32;;;11.07;;
11245;SDS011;59870;50.106;8.580;2023-07-02T10:50:20;12.77;;;10.15;;
11245;SDS011;59870;50.106;8.580;2023-07-02T10:52:50;11.17;;;10.17;;
11245;SDS011;59870;50.106;8.580;2023-07-02T10:55:21;11.60;;;10.52;;
11245;SDS011;59870;50.106;8.580;2023-07-02T10:58:01;13.57;;;11.52;;
11245;SDS011;59870;50.106;8.580;2023-07-02T11:00:33;12.02;;;10.90;;
11245;SDS011;59870;50.106;8.580;2023-07-02T11:03:17;12.02;;;10.82;;
11245;SDS011;59870;50.106;8.580;2023-07-02T11:05:49;11.50;;;9.45;;
11245;SDS011;59870;50.106;8.580;2023-07-02T11:08:18;11.00;;;8.93;;
11245;SDS011;59870;50.106;8.580;2023-07-02T11:11:02;12.27;;;10.67;;
11245;SDS011;59870;50.106;8.580;2023-07-02T11:13:31;12.35;;;9.93;;
11245;SDS011;59870;50.106;8.580;2023-07-02T11:15:59;16.80;;;11.13;;
11245;SDS011;59870;50.106;8.580;2023-07-02T11:18:29;11.43;;;10.25;;
11245;SDS011;59870;50.106;8.580;2023-07-02T11:20:59;11.55;;;10.40;;
11245;SDS011;59870;50.106;8.580;2023-07-02T11:23:37;12.13;;;10.77;;
11245;SDS011;59870;50.106;8.580;2023-07-02T11:26:04;10.80;;;9.65;;
11245;SDS011;59870;50.106;8.580;2023-07-02T11:28:32;11.17;;;9.67;;
11245;SDS011;59870;50.106;8.580;2023-07-02T11:31:04;11.25;;;9.75;;
11245;SDS011;59870;50.106;8.580;2023-07-02T11:33:41;11.40;;;10.30;;
11245;SDS011;59870;50.106;8.580;2023-07-02T11:36:18;11.20;;;10.00;;
11245;SDS011;59870;50.106;8.580;2023-07-02T11:38:48;14.07;;;11.43;;
11245;SDS011;59870;50.106;8.580;2023-07-02T11:41:16;12.55;;;11.45;;
11245;SDS011;59870;50.106;8.580;2023-07-02T11:43:47;13.07;;;11.88;;
11245;SDS011;59870;50.106;8.580;2023-07-02T11:46:15;11.63;;;10.63;;
11245;SDS011;59870;50.106;8.580;2023-07-02T11:48:42;11.80;;;10.55;;
11245;SDS011;59870;50.106;8.580;2023-07-02T11:51:10;12.55;;;11.32;;
11245;SDS011;59870;50.106;8.580;2023-07-02T11:53:37;17.67;;;12.75;;
11245;SDS011;59870;50.106;8.580;2023-07-02T11:56:06;13.00;;;11.60;;
11245;SDS011;59870;50.106;8.580;2023-07-02T11:58:34;13.80;;;12.40;;
11245;SDS011;59870;50.106;8.580;2023-07-02T12:01:01;13.43;;;12.07;;
11245;SDS011;59870;50.106;8.580;2023-07-02T12:03:29;13.30;;;11.90;;
11245;SDS011;59870;50.106;8.580;2023-07-02T12:05:57;13.55;;;12.23;;
11245;SDS011;59870;50.106;8.580;2023-07-02T12:08:24;14.67;;;12.47;;
11245;SDS011;59870;50.106;8.580;2023-07-02T12:10:52;12.83;;;11.57;;
11245;SDS011;59870;50.106;8.580;2023-07-02T12:13:19;13.02;;;11.70;;
11245;SDS011;59870;50.106;8.580;2023-07-02T12:15:49;12.82;;;11.45;;
11245;SDS011;59870;50.106;8.580;2023-07-02T12:18:18;12.30;;;9.68;;
11245;SDS011;59870;50.106;8.580;2023-07-02T12:20:45;11.90;;;10.67;;
11245;SDS011;59870;50.106;8.580;2023-07-02T12:23:13;11.30;;;10.30;;
11245;SDS011;59870;50.106;8.580;2023-07-02T12:25:40;12.10;;;10.90;;
11245;SDS011;59870;50.106;8.580;2023-07-02T12:28:07;12.57;;;11.27;;
11245;SDS011;59870;50.106;8.580;2023-07-02T12:30:38;12.93;;;11.37;;
11245;SDS011;59870;50.106;8.580;2023-07-02T12:33:05;12.60;;;11.40;;
11245;SDS011;59870;50.106;8.580;2023-07-02T12:35:33;12.53;;;11.27;;
11245;SDS011;59870;50.106;8.580;2023-07-02T12:38:00;11.60;;;10.60;;
11245;SDS011;59870;50.106;8.580;2023-07-02T12:40:30;11.93;;;10.63;;
11245;SDS011;59870;50.106;8.580;2023-07-02T12:42:57;11.70;;;10.70;;
11245;SDS011;59870;50.106;8.580;2023-07-02T12:45:25;17.13;;;11.77;;
11245;SDS011;59870;50.106;8.580;2023-07-02T12:47:52;12.30;;;11.07;;
11245;SDS011;59870;50.106;8.580;2023-07-02T12:50:20;11.50;;;10.30;;
11245;SDS011;59870;50.106;8.580;2023-07-02T12:52:47;12.15;;;11.10;;
11245;SDS011;59870;50.106;8.580;2023-07-02T12:55:15;13.17;;;11.60;;
11245;SDS011;59870;50.106;8.580;2023-07-02T12:57:42;11.87;;;10.80;;
11245;SDS011;59870;50.106;8.580;2023-07-02T13:00:10;13.30;;;12.10;;
11245;SDS011;59870;50.106;8.580;2023-07-02T13:02:38;13.25;;;11.95;;
11245;SDS011;59870;50.106;8.580;2023-07-02T13:05:25;13.63;;;11.87;;
11245;SDS011;59870;50.106;8.580;2023-07-02T13:07:52;14.00;;;11.97;;
11245;SDS011;59870;50.106;8.580;2023-07-02T13:10:20;13.43;;;12.17;;
11245;SDS011;59870;50.106;8.580;2023-07-02T13:12:47;12.87;;;11.67;;
11245;SDS011;59870;50.106;8.580;2023-07-02T13:15:15;14.37;;;11.93;;
11245;SDS011;59870;50.106;8.580;2023-07-02T13:17:43;14.87;;;11.90;;
11245;SDS011;59870;50.106;8.580;2023-07-02T13:20:11;12.00;;;10.83;;
11245;SDS011;59870;50.106;8.580;2023-07-02T13:22:38;12.67;;;11.37;;
11245;SDS011;59870;50.106;8.580;2023-07-02T13:25:06;13.33;;;11.77;;
11245;SDS011;59870;50.106;8.580;2023-07-02T13:27:33;14.50;;;12.73;;
11245;SDS011;59870;50.106;8.580;2023-07-02T13:30:01;12.40;;;11.13;;
11245;SDS011;59870;50.106;8.580;2023-07-02T13:32:30;13.00;;;11.70;;
11245;SDS011;59870;50.106;8.580;2023-07-02T13:34:58;14.03;;;12.63;;
11245;SDS011;59870;50.106;8.580;2023-07-02T13:37:25;14.07;;;12.57;;
11245;SDS011;59870;50.106;8.580;2023-07-02T13:39:53;15.53;;;12.57;;
11245;SDS011;59870;50.106;8.580;2023-07-02T13:42:21;13.53;;;12.23;;
11245;SDS011;59870;50.106;8.580;2023-07-02T13:44:48;18.30;;;12.10;;
11245;SDS011;59870;50.106;8.580;2023-07-02T13:47:16;13.70;;;12.30;;
11245;SDS011;59870;50.106;8.580;2023-07-02T13:49:44;14.30;;;11.47;;
11245;SDS011;59870;50.106;8.580;2023-07-02T13:52:11;14.32;;;12.82;;
11245;SDS011;59870;50.106;8.580;2023-07-02T13:54:39;15.83;;;13.07;;
11245;SDS011;59870;50.106;8.580;2023-07-02T13:57:06;16.97;;;12.77;;
11245;SDS011;59870;50.106;8.580;2023-07-02T13:59:33;13.87;;;12.50;;
11245;SDS011;59870;50.106;8.580;2023-07-02T14:02:01;15.90;;;13.70;;
11245;SDS011;59870;50.106;8.580;2023-07-02T14:04:29;17.47;;;13.57;;
11245;SDS011;59870;50.106;8.580;2023-07-02T14:06:58;14.57;;;13.07;;
11245;SDS011;59870;50.106;8.580;2023-07-02T14:09:25;17.13;;;12.83;;
11245;SDS011;59870;50.106;8.580;2023-07-02T14:11:53;16.43;;;13.00;;
11245;SDS011;59870;50.106;8.580;2023-07-02T14:14:20;14.93;;;12.50;;
11245;SDS011;59870;50.106;8.580;2023-07-02T14:16:48;16.50;;;14.27;;
11245;SDS011;59870;50.106;8.580;2023-07-02T14:19:15;15.50;;;12.77;;
11245;SDS011;59870;50.106;8.580;2023-07-02T14:21:44;19.07;;;13.37;;
11245;SDS011;59870;50.106;8.580;2023-07-02T14:24:13;17.20;;;12.93;;
11245;SDS011;59870;50.106;8.580;2023-07-02T14:26:41;19.30;;;13.73;;
11245;SDS011;59870;50.106;8.580;2023-07-02T14:29:10;16.77;;;13.80;;
11245;SDS011;59870;50.106;8.580;2023-07-02T14:31:38;14.13;;;12.83;;
11245;SDS011;59870;50.106;8.580;2023-07-02T14:34:05;16.77;;;13.77;;
11245;SDS011;59870;50.106;8.580;2023-07-02T14:36:33;15.50;;;13.57;;
11245;SDS011;59870;50.106;8.580;2023-07-02T14:39:00;16.03;;;14.20;;
11245;SDS011;59870;50.106;8.580;2023-07-02T14:41:28;15.37;;;13.53;;
11245;SDS011;59870;50.106;8.580;2023-07-02T14:44:02;17.38;;;14.52;;